sensor_id;sensor_type;location;lat;lon;timestamp;P1;durP1;ratioP1;P2;durP2;ratioP2
55617;SDS011;41492;49.804;9.952;2022-10-22T00:00:47;693.67;;;435.13;;
55617;SDS011;41492;49.804;9.952;2022-10-22T00:03:14;692.50;;;426.08;;
55617;SDS011;41492;49.804;9.952;2022-10-22T00:05:41;686.08;;;405.65;;
55617;SDS011;41492;49.804;9.952;2022-10-22T00:08:08;689.78;;;419.90;;
55617;SDS011;41492;49.804;9.952;2022-10-22T00:10:35;689.72;;;429.42;;
55617;SDS011;41492;49.804;9.952;2022-10-22T00:13:02;690.22;;;426.98;;
55617;SDS011;41492;49.804;9.952;2022-10-22T00:15:30;690.97;;;435.17;;
55617;SDS011;41492;49.804;9.952;2022-10-22T00:17:57;689.75;;;427.02;;
55617;SDS011;41492;49.804;9.952;2022-10-22T00:20:24;690.15;;;427.42;;
55617;SDS011;41492;49.804;9.952;2022-10-22T00:22:50;692.17;;;436.50;;
55617;SDS011;41492;49.804;9.952;2022-10-22T00:25:17;689.38;;;426.27;;
55617;SDS011;41492;49.804;9.952;2022-10-22T00:27:44;692.83;;;434.05;;
55617;SDS011;41492;49.804;9.952;2022-10-22T00:30:10;690.38;;;422.83;;
55617;SDS011;41492;49.804;9.952;2022-10-22T00:32:39;682.92;;;400.25;;
55617;SDS011;41492;49.804;9.952;2022-10-22T00:35:05;687.03;;;417.85;;
55617;SDS011;41492;49.804;9.952;2022-10-22T00:37:32;688.70;;;420.02;;
55617;SDS011;41492;49.804;9.952;2022-10-22T00:39:59;689.42;;;419.63;;
55617;SDS011;41492;49.804;9.952;2022-10-22T00:42:26;686.28;;;409.10;;
55617;SDS011;41492;49.804;9.952;2022-10-22T00:45:03;686.75;;;416.08;;
55617;SDS011;41492;49.804;9.952;2022-10-22T00:47:33;690.40;;;425.83;;
55617;SDS011;41492;49.804;9.952;2022-10-22T00:50:02;689.20;;;408.08;;
55617;SDS011;41492;49.804;9.952;2022-10-22T00:52:31;682.80;;;400.52;;
55617;SDS011;41492;49.804;9.952;2022-10-22T00:54:58;686.70;;;411.10;;
55617;SDS011;41492;49.804;9.952;2022-10-22T00:57:25;691.72;;;434.55;;
55617;SDS011;41492;49.804;9.952;2022-10-22T00:59:52;684.65;;;404.13;;
55617;SDS011;41492;49.804;9.952;2022-10-22T01:02:19;684.22;;;401.00;;
55617;SDS011;41492;49.804;9.952;2022-10-22T01:04:46;688.00;;;421.77;;
55617;SDS011;41492;49.804;9.952;2022-10-22T01:07:15;681.17;;;388.15;;
55617;SDS011;41492;49.804;9.952;2022-10-22T01:09:44;688.30;;;413.60;;
55617;SDS011;41492;49.804;9.952;2022-10-22T01:12:13;692.03;;;430.80;;
55617;SDS011;41492;49.804;9.952;2022-10-22T01:14:44;686.58;;;413.40;;
55617;SDS011;41492;49.804;9.952;2022-10-22T01:17:21;689.47;;;421.50;;
55617;SDS011;41492;49.804;9.952;2022-10-22T01:19:53;685.40;;;409.63;;
55617;SDS011;41492;49.804;9.952;2022-10-22T01:22:29;688.92;;;424.00;;
55617;SDS011;41492;49.804;9.952;2022-10-22T01:24:59;680.45;;;390.92;;
55617;SDS011;41492;49.804;9.952;2022-10-22T01:27:34;690.20;;;428.52;;
55617;SDS011;41492;49.804;9.952;2022-10-22T01:30:10;689.60;;;427.50;;
55617;SDS011;41492;49.804;9.952;2022-10-22T01:32:38;693.70;;;440.55;;
55617;SDS011;41492;49.804;9.952;2022-10-22T01:35:09;685.47;;;410.50;;
55617;SDS011;41492;49.804;9.952;2022-10-22T01:37:40;686.47;;;411.95;;
55617;SDS011;41492;49.804;9.952;2022-10-22T01:40:09;685.90;;;412.65;;
55617;SDS011;41492;49.804;9.952;2022-10-22T01:42:37;689.05;;;420.40;;
55617;SDS011;41492;49.804;9.952;2022-10-22T01:45:10;682.00;;;399.92;;
55617;SDS011;41492;49.804;9.952;2022-10-22T01:47:38;679.30;;;388.30;;
55617;SDS011;41492;49.804;9.952;2022-10-22T01:50:23;691.17;;;427.45;;
55617;SDS011;41492;49.804;9.952;2022-10-22T01:53:06;686.00;;;413.90;;
55617;SDS011;41492;49.804;9.952;2022-10-22T01:55:41;678.72;;;387.60;;
55617;SDS011;41492;49.804;9.952;2022-10-22T01:58:14;681.38;;;399.15;;
55617;SDS011;41492;49.804;9.952;2022-10-22T02:00:48;684.47;;;402.33;;
55617;SDS011;41492;49.804;9.952;2022-10-22T02:03:17;683.10;;;402.30;;
55617;SDS011;41492;49.804;9.952;2022-10-22T02:05:48;685.22;;;407.85;;
55617;SDS011;41492;49.804;9.952;2022-10-22T02:08:16;682.92;;;400.58;;
55617;SDS011;41492;49.804;9.952;2022-10-22T02:10:45;682.15;;;395.58;;
55617;SDS011;41492;49.804;9.952;2022-10-22T02:13:13;691.60;;;429.33;;
55617;SDS011;41492;49.804;9.952;2022-10-22T02:15:42;685.65;;;414.73;;
55617;SDS011;41492;49.804;9.952;2022-10-22T02:18:12;689.25;;;431.35;;
55617;SDS011;41492;49.804;9.952;2022-10-22T02:20:40;689.60;;;423.38;;
55617;SDS011;41492;49.804;9.952;2022-10-22T02:23:07;687.35;;;418.73;;
55617;SDS011;41492;49.804;9.952;2022-10-22T02:25:35;681.45;;;398.70;;
55617;SDS011;41492;49.804;9.952;2022-10-22T02:28:06;683.22;;;402.27;;
55617;SDS011;41492;49.804;9.952;2022-10-22T02:30:38;686.53;;;412.95;;
55617;SDS011;41492;49.804;9.952;2022-10-22T02:33:06;683.08;;;398.30;;
55617;SDS011;41492;49.804;9.952;2022-10-22T02:35:36;688.83;;;421.00;;
55617;SDS011;41492;49.804;9.952;2022-10-22T02:38:05;689.17;;;423.15;;
55617;SDS011;41492;49.804;9.952;2022-10-22T02:40:32;690.63;;;429.67;;
55617;SDS011;41492;49.804;9.952;2022-10-22T02:42:59;687.80;;;420.38;;
55617;SDS011;41492;49.804;9.952;2022-10-22T02:45:25;687.20;;;414.20;;
55617;SDS011;41492;49.804;9.952;2022-10-22T02:47:52;686.47;;;412.08;;
55617;SDS011;41492;49.804;9.952;2022-10-22T02:50:19;685.58;;;405.85;;
55617;SDS011;41492;49.804;9.952;2022-10-22T02:52:47;681.65;;;395.63;;
55617;SDS011;41492;49.804;9.952;2022-10-22T02:55:13;685.33;;;403.30;;
55617;SDS011;41492;49.804;9.952;2022-10-22T02:57:40;689.97;;;428.30;;
55617;SDS011;41492;49.804;9.952;2022-10-22T03:00:07;686.25;;;411.45;;
55617;SDS011;41492;49.804;9.952;2022-10-22T03:02:35;686.90;;;415.90;;
55617;SDS011;41492;49.804;9.952;2022-10-22T03:05:01;681.92;;;394.83;;
55617;SDS011;41492;49.804;9.952;2022-10-22T03:07:28;692.05;;;428.45;;
55617;SDS011;41492;49.804;9.952;2022-10-22T03:09:56;686.05;;;411.38;;
55617;SDS011;41492;49.804;9.952;2022-10-22T03:12:23;685.92;;;409.17;;
55617;SDS011;41492;49.804;9.952;2022-10-22T03:14:49;682.15;;;397.17;;
55617;SDS011;41492;49.804;9.952;2022-10-22T03:17:16;691.05;;;427.85;;
55617;SDS011;41492;49.804;9.952;2022-10-22T03:19:43;697.80;;;449.20;;
55617;SDS011;41492;49.804;9.952;2022-10-22T03:22:11;688.10;;;406.58;;
55617;SDS011;41492;49.804;9.952;2022-10-22T03:24:40;688.40;;;409.58;;
55617;SDS011;41492;49.804;9.952;2022-10-22T03:27:09;691.33;;;421.05;;
55617;SDS011;41492;49.804;9.952;2022-10-22T03:29:37;686.13;;;407.13;;
55617;SDS011;41492;49.804;9.952;2022-10-22T03:32:05;695.72;;;439.58;;
55617;SDS011;41492;49.804;9.952;2022-10-22T03:34:32;685.15;;;406.17;;
55617;SDS011;41492;49.804;9.952;2022-10-22T03:36:59;690.35;;;424.60;;
55617;SDS011;41492;49.804;9.952;2022-10-22T03:39:27;686.35;;;404.45;;
55617;SDS011;41492;49.804;9.952;2022-10-22T03:41:54;694.33;;;441.38;;
55617;SDS011;41492;49.804;9.952;2022-10-22T03:44:22;692.65;;;432.08;;
55617;SDS011;41492;49.804;9.952;2022-10-22T03:46:50;692.50;;;433.00;;
55617;SDS011;41492;49.804;9.952;2022-10-22T03:49:16;695.58;;;438.17;;
55617;SDS011;41492;49.804;9.952;2022-10-22T03:51:43;687.92;;;413.33;;
55617;SDS011;41492;49.804;9.952;2022-10-22T03:54:09;682.78;;;397.13;;
55617;SDS011;41492;49.804;9.952;2022-10-22T03:56:36;689.10;;;414.05;;
55617;SDS011;41492;49.804;9.952;2022-10-22T03:59:03;687.00;;;411.40;;
55617;SDS011;41492;49.804;9.952;2022-10-22T04:01:31;696.42;;;442.95;;
55617;SDS011;41492;49.804;9.952;2022-10-22T04:03:57;693.08;;;432.52;;
55617;SDS011;41492;49.804;9.952;2022-10-22T04:06:24;696.63;;;446.80;;
55617;SDS011;41492;49.804;9.952;2022-10-22T04:08:50;686.88;;;415.83;;
55617;SDS011;41492;49.804;9.952;2022-10-22T04:11:17;691.03;;;424.92;;
55617;SDS011;41492;49.804;9.952;2022-10-22T04:13:44;691.17;;;435.50;;
55617;SDS011;41492;49.804;9.952;2022-10-22T04:16:11;696.28;;;449.55;;
55617;SDS011;41492;49.804;9.952;2022-10-22T04:18:41;693.35;;;438.35;;
55617;SDS011;41492;49.804;9.952;2022-10-22T04:21:08;689.00;;;418.73;;
55617;SDS011;41492;49.804;9.952;2022-10-22T04:23:36;686.03;;;403.52;;
55617;SDS011;41492;49.804;9.952;2022-10-22T04:26:05;690.08;;;425.35;;
55617;SDS011;41492;49.804;9.952;2022-10-22T04:28:33;695.08;;;436.40;;
55617;SDS011;41492;49.804;9.952;2022-10-22T04:30:59;689.90;;;424.75;;
55617;SDS011;41492;49.804;9.952;2022-10-22T04:33:26;692.67;;;433.77;;
55617;SDS011;41492;49.804;9.952;2022-10-22T04:35:54;690.25;;;420.15;;
55617;SDS011;41492;49.804;9.952;2022-10-22T04:38:20;690.47;;;423.45;;
55617;SDS011;41492;49.804;9.952;2022-10-22T04:40:47;688.75;;;416.85;;
55617;SDS011;41492;49.804;9.952;2022-10-22T04:43:13;685.88;;;406.25;;
55617;SDS011;41492;49.804;9.952;2022-10-22T04:45:40;691.20;;;416.98;;
55617;SDS011;41492;49.804;9.952;2022-10-22T04:48:07;691.88;;;426.30;;
55617;SDS011;41492;49.804;9.952;2022-10-22T04:50:33;696.28;;;444.05;;
55617;SDS011;41492;49.804;9.952;2022-10-22T04:53:02;686.97;;;410.27;;
55617;SDS011;41492;49.804;9.952;2022-10-22T04:55:28;690.80;;;427.05;;
55617;SDS011;41492;49.804;9.952;2022-10-22T04:57:55;693.33;;;434.63;;
55617;SDS011;41492;49.804;9.952;2022-10-22T05:00:21;691.25;;;424.80;;
55617;SDS011;41492;49.804;9.952;2022-10-22T05:02:48;688.08;;;412.48;;
55617;SDS011;41492;49.804;9.952;2022-10-22T05:05:15;690.15;;;420.05;;
55617;SDS011;41492;49.804;9.952;2022-10-22T05:07:42;690.35;;;425.65;;
55617;SDS011;41492;49.804;9.952;2022-10-22T05:10:10;694.03;;;438.70;;
55617;SDS011;41492;49.804;9.952;2022-10-22T05:12:36;693.60;;;439.13;;
55617;SDS011;41492;49.804;9.952;2022-10-22T05:15:03;690.95;;;427.33;;
55617;SDS011;41492;49.804;9.952;2022-10-22T05:17:30;693.70;;;430.98;;
55617;SDS011;41492;49.804;9.952;2022-10-22T05:19:57;688.80;;;423.60;;
55617;SDS011;41492;49.804;9.952;2022-10-22T05:22:23;684.30;;;406.88;;
55617;SDS011;41492;49.804;9.952;2022-10-22T05:24:50;686.35;;;409.80;;
55617;SDS011;41492;49.804;9.952;2022-10-22T05:27:18;687.22;;;409.55;;
55617;SDS011;41492;49.804;9.952;2022-10-22T05:29:44;689.95;;;426.30;;
55617;SDS011;41492;49.804;9.952;2022-10-22T05:32:11;684.60;;;405.83;;
55617;SDS011;41492;49.804;9.952;2022-10-22T05:34:37;689.30;;;427.33;;
55617;SDS011;41492;49.804;9.952;2022-10-22T05:37:04;684.85;;;405.33;;
55617;SDS011;41492;49.804;9.952;2022-10-22T05:39:30;680.60;;;395.50;;
55617;SDS011;41492;49.804;9.952;2022-10-22T05:42:00;695.13;;;443.48;;
55617;SDS011;41492;49.804;9.952;2022-10-22T05:44:28;692.13;;;428.52;;
55617;SDS011;41492;49.804;9.952;2022-10-22T05:46:55;692.97;;;433.02;;
55617;SDS011;41492;49.804;9.952;2022-10-22T05:49:22;689.50;;;416.83;;
55617;SDS011;41492;49.804;9.952;2022-10-22T05:51:48;694.08;;;439.00;;
55617;SDS011;41492;49.804;9.952;2022-10-22T05:54:16;693.67;;;434.98;;
55617;SDS011;41492;49.804;9.952;2022-10-22T05:56:43;694.08;;;438.40;;
55617;SDS011;41492;49.804;9.952;2022-10-22T05:59:10;684.92;;;407.15;;
55617;SDS011;41492;49.804;9.952;2022-10-22T06:01:38;685.13;;;411.67;;
55617;SDS011;41492;49.804;9.952;2022-10-22T06:04:06;693.70;;;437.05;;
55617;SDS011;41492;49.804;9.952;2022-10-22T06:06:36;691.67;;;435.92;;
55617;SDS011;41492;49.804;9.952;2022-10-22T06:09:04;689.67;;;422.38;;
55617;SDS011;41492;49.804;9.952;2022-10-22T06:11:35;687.47;;;420.00;;
55617;SDS011;41492;49.804;9.952;2022-10-22T06:14:01;686.65;;;416.10;;
55617;SDS011;41492;49.804;9.952;2022-10-22T06:16:28;687.88;;;417.38;;
55617;SDS011;41492;49.804;9.952;2022-10-22T06:18:58;690.65;;;422.95;;
55617;SDS011;41492;49.804;9.952;2022-10-22T06:21:26;695.30;;;442.38;;
55617;SDS011;41492;49.804;9.952;2022-10-22T06:23:54;688.15;;;416.63;;
55617;SDS011;41492;49.804;9.952;2022-10-22T06:26:21;687.15;;;412.73;;
55617;SDS011;41492;49.804;9.952;2022-10-22T06:28:47;691.70;;;425.55;;
55617;SDS011;41492;49.804;9.952;2022-10-22T06:31:14;683.92;;;395.83;;
55617;SDS011;41492;49.804;9.952;2022-10-22T06:33:41;690.83;;;426.45;;
55617;SDS011;41492;49.804;9.952;2022-10-22T06:36:10;694.45;;;438.02;;
55617;SDS011;41492;49.804;9.952;2022-10-22T06:38:38;686.10;;;397.00;;
55617;SDS011;41492;49.804;9.952;2022-10-22T06:41:05;687.75;;;414.17;;
55617;SDS011;41492;49.804;9.952;2022-10-22T06:43:32;693.90;;;441.17;;
55617;SDS011;41492;49.804;9.952;2022-10-22T06:45:59;693.40;;;430.20;;
55617;SDS011;41492;49.804;9.952;2022-10-22T06:48:26;695.05;;;440.65;;
55617;SDS011;41492;49.804;9.952;2022-10-22T06:50:53;689.60;;;414.65;;
55617;SDS011;41492;49.804;9.952;2022-10-22T06:53:21;688.13;;;410.55;;
55617;SDS011;41492;49.804;9.952;2022-10-22T06:55:47;693.35;;;438.83;;
55617;SDS011;41492;49.804;9.952;2022-10-22T06:58:14;686.15;;;406.60;;
55617;SDS011;41492;49.804;9.952;2022-10-22T07:00:41;691.45;;;426.83;;
55617;SDS011;41492;49.804;9.952;2022-10-22T07:03:07;693.15;;;433.83;;
55617;SDS011;41492;49.804;9.952;2022-10-22T07:05:36;692.50;;;436.90;;
55617;SDS011;41492;49.804;9.952;2022-10-22T07:08:03;686.70;;;408.73;;
55617;SDS011;41492;49.804;9.952;2022-10-22T07:10:31;687.10;;;411.67;;
55617;SDS011;41492;49.804;9.952;2022-10-22T07:12:58;698.03;;;446.20;;
55617;SDS011;41492;49.804;9.952;2022-10-22T07:15:24;695.03;;;436.00;;
55617;SDS011;41492;49.804;9.952;2022-10-22T07:17:51;694.80;;;443.15;;
55617;SDS011;41492;49.804;9.952;2022-10-22T07:20:18;685.97;;;408.70;;
55617;SDS011;41492;49.804;9.952;2022-10-22T07:22:45;684.90;;;407.95;;
55617;SDS011;41492;49.804;9.952;2022-10-22T07:25:12;695.95;;;438.98;;
55617;SDS011;41492;49.804;9.952;2022-10-22T07:27:40;689.90;;;421.38;;
55617;SDS011;41492;49.804;9.952;2022-10-22T07:30:07;688.28;;;413.67;;
55617;SDS011;41492;49.804;9.952;2022-10-22T07:32:34;692.35;;;432.30;;
55617;SDS011;41492;49.804;9.952;2022-10-22T07:35:01;683.33;;;395.02;;
55617;SDS011;41492;49.804;9.952;2022-10-22T07:37:28;689.25;;;409.73;;
55617;SDS011;41492;49.804;9.952;2022-10-22T07:39:55;690.78;;;405.10;;
55617;SDS011;41492;49.804;9.952;2022-10-22T07:42:21;692.03;;;426.58;;
55617;SDS011;41492;49.804;9.952;2022-10-22T07:44:49;698.85;;;443.65;;
55617;SDS011;41492;49.804;9.952;2022-10-22T07:47:16;694.53;;;428.85;;
55617;SDS011;41492;49.804;9.952;2022-10-22T07:49:42;702.72;;;456.77;;
55617;SDS011;41492;49.804;9.952;2022-10-22T07:52:09;690.40;;;412.38;;
55617;SDS011;41492;49.804;9.952;2022-10-22T07:54:36;700.97;;;453.90;;
55617;SDS011;41492;49.804;9.952;2022-10-22T07:57:02;697.30;;;440.67;;
55617;SDS011;41492;49.804;9.952;2022-10-22T07:59:29;694.03;;;432.20;;
55617;SDS011;41492;49.804;9.952;2022-10-22T08:01:57;698.40;;;435.95;;
55617;SDS011;41492;49.804;9.952;2022-10-22T08:04:23;695.60;;;428.45;;
55617;SDS011;41492;49.804;9.952;2022-10-22T08:06:50;697.75;;;443.33;;
55617;SDS011;41492;49.804;9.952;2022-10-22T08:09:16;693.08;;;410.65;;
55617;SDS011;41492;49.804;9.952;2022-10-22T08:11:43;696.05;;;436.40;;
55617;SDS011;41492;49.804;9.952;2022-10-22T08:14:10;690.20;;;410.35;;
55617;SDS011;41492;49.804;9.952;2022-10-22T08:16:37;698.35;;;435.00;;
55617;SDS011;41492;49.804;9.952;2022-10-22T08:19:05;693.17;;;419.08;;
55617;SDS011;41492;49.804;9.952;2022-10-22T08:21:31;703.50;;;448.95;;
55617;SDS011;41492;49.804;9.952;2022-10-22T08:23:58;698.85;;;437.65;;
55617;SDS011;41492;49.804;9.952;2022-10-22T08:26:24;702.08;;;434.52;;
55617;SDS011;41492;49.804;9.952;2022-10-22T08:28:51;699.33;;;433.20;;
55617;SDS011;41492;49.804;9.952;2022-10-22T08:31:17;694.63;;;428.27;;
55617;SDS011;41492;49.804;9.952;2022-10-22T08:33:44;694.97;;;435.52;;
55617;SDS011;41492;49.804;9.952;2022-10-22T08:36:12;705.38;;;441.98;;
55617;SDS011;41492;49.804;9.952;2022-10-22T08:38:39;697.45;;;427.75;;
55617;SDS011;41492;49.804;9.952;2022-10-22T08:41:08;709.08;;;454.00;;
55617;SDS011;41492;49.804;9.952;2022-10-22T08:43:49;694.75;;;415.42;;
55617;SDS011;41492;49.804;9.952;2022-10-22T08:46:34;697.47;;;427.38;;
55617;SDS011;41492;49.804;9.952;2022-10-22T08:49:11;694.65;;;416.27;;
55617;SDS011;41492;49.804;9.952;2022-10-22T08:51:43;700.22;;;442.92;;
55617;SDS011;41492;49.804;9.952;2022-10-22T08:54:15;694.35;;;425.17;;
55617;SDS011;41492;49.804;9.952;2022-10-22T08:56:49;702.10;;;433.38;;
55617;SDS011;41492;49.804;9.952;2022-10-22T08:59:22;700.42;;;435.95;;
55617;SDS011;41492;49.804;9.952;2022-10-22T09:01:53;695.50;;;427.83;;
55617;SDS011;41492;49.804;9.952;2022-10-22T09:04:20;693.75;;;408.35;;
55617;SDS011;41492;49.804;9.952;2022-10-22T09:06:52;698.75;;;439.08;;
55617;SDS011;41492;49.804;9.952;2022-10-22T09:09:20;698.10;;;408.33;;
55617;SDS011;41492;49.804;9.952;2022-10-22T09:11:47;703.53;;;433.77;;
55617;SDS011;41492;49.804;9.952;2022-10-22T09:14:16;689.80;;;404.45;;
55617;SDS011;41492;49.804;9.952;2022-10-22T09:16:50;702.78;;;441.38;;
55617;SDS011;41492;49.804;9.952;2022-10-22T09:19:30;703.63;;;450.45;;
55617;SDS011;41492;49.804;9.952;2022-10-22T09:22:01;699.47;;;441.15;;
55617;SDS011;41492;49.804;9.952;2022-10-22T09:24:35;695.75;;;416.00;;
55617;SDS011;41492;49.804;9.952;2022-10-22T09:27:06;695.80;;;427.58;;
55617;SDS011;41492;49.804;9.952;2022-10-22T09:29:37;700.20;;;438.30;;
55617;SDS011;41492;49.804;9.952;2022-10-22T09:32:04;697.03;;;439.17;;
55617;SDS011;41492;49.804;9.952;2022-10-22T09:34:30;694.97;;;405.02;;
55617;SDS011;41492;49.804;9.952;2022-10-22T09:36:58;698.20;;;422.98;;
55617;SDS011;41492;49.804;9.952;2022-10-22T09:39:31;696.28;;;428.52;;
55617;SDS011;41492;49.804;9.952;2022-10-22T09:41:59;698.85;;;432.98;;
55617;SDS011;41492;49.804;9.952;2022-10-22T09:44:26;694.80;;;421.83;;
55617;SDS011;41492;49.804;9.952;2022-10-22T09:46:53;701.22;;;427.90;;
55617;SDS011;41492;49.804;9.952;2022-10-22T09:49:20;704.80;;;422.63;;
55617;SDS011;41492;49.804;9.952;2022-10-22T09:51:49;706.60;;;448.50;;
55617;SDS011;41492;49.804;9.952;2022-10-22T09:54:19;698.10;;;413.33;;
55617;SDS011;41492;49.804;9.952;2022-10-22T09:56:52;713.47;;;450.27;;
55617;SDS011;41492;49.804;9.952;2022-10-22T09:59:25;700.85;;;426.60;;
55617;SDS011;41492;49.804;9.952;2022-10-22T10:02:01;698.65;;;439.35;;
55617;SDS011;41492;49.804;9.952;2022-10-22T10:04:33;692.42;;;414.55;;
55617;SDS011;41492;49.804;9.952;2022-10-22T10:07:00;698.95;;;424.55;;
55617;SDS011;41492;49.804;9.952;2022-10-22T10:09:29;696.47;;;416.05;;
55617;SDS011;41492;49.804;9.952;2022-10-22T10:11:58;703.78;;;444.95;;
55617;SDS011;41492;49.804;9.952;2022-10-22T10:14:34;709.22;;;460.65;;
55617;SDS011;41492;49.804;9.952;2022-10-22T10:17:07;710.95;;;448.17;;
55617;SDS011;41492;49.804;9.952;2022-10-22T10:19:48;712.00;;;444.80;;
55617;SDS011;41492;49.804;9.952;2022-10-22T10:22:25;693.45;;;420.67;;
55617;SDS011;41492;49.804;9.952;2022-10-22T10:25:11;698.83;;;432.20;;
55617;SDS011;41492;49.804;9.952;2022-10-22T10:27:46;702.58;;;431.60;;
55617;SDS011;41492;49.804;9.952;2022-10-22T10:30:16;698.50;;;431.58;;
55617;SDS011;41492;49.804;9.952;2022-10-22T10:32:54;703.53;;;431.15;;
55617;SDS011;41492;49.804;9.952;2022-10-22T10:35:35;698.55;;;431.05;;
55617;SDS011;41492;49.804;9.952;2022-10-22T10:38:14;695.22;;;414.15;;
55617;SDS011;41492;49.804;9.952;2022-10-22T10:40:47;702.85;;;441.33;;
55617;SDS011;41492;49.804;9.952;2022-10-22T10:43:17;711.55;;;456.65;;
55617;SDS011;41492;49.804;9.952;2022-10-22T10:45:50;701.63;;;430.92;;
55617;SDS011;41492;49.804;9.952;2022-10-22T10:51:12;694.20;;;414.95;;
55617;SDS011;41492;49.804;9.952;2022-10-22T10:53:51;698.03;;;430.98;;
55617;SDS011;41492;49.804;9.952;2022-10-22T10:56:34;696.67;;;434.55;;
55617;SDS011;41492;49.804;9.952;2022-10-22T10:59:09;699.40;;;447.80;;
55617;SDS011;41492;49.804;9.952;2022-10-22T11:01:41;695.92;;;430.42;;
55617;SDS011;41492;49.804;9.952;2022-10-22T11:07:21;692.63;;;422.92;;
55617;SDS011;41492;49.804;9.952;2022-10-22T11:09:52;693.67;;;418.05;;
55617;SDS011;41492;49.804;9.952;2022-10-22T11:12:22;704.53;;;442.67;;
55617;SDS011;41492;49.804;9.952;2022-10-22T11:14:54;703.05;;;450.27;;
55617;SDS011;41492;49.804;9.952;2022-10-22T11:17:24;698.30;;;443.65;;
55617;SDS011;41492;49.804;9.952;2022-10-22T11:19:56;699.38;;;436.30;;
55617;SDS011;41492;49.804;9.952;2022-10-22T11:22:27;694.53;;;426.27;;
55617;SDS011;41492;49.804;9.952;2022-10-22T11:24:58;699.55;;;446.23;;
55617;SDS011;41492;49.804;9.952;2022-10-22T11:27:30;700.92;;;449.63;;
55617;SDS011;41492;49.804;9.952;2022-10-22T11:30:02;703.58;;;453.45;;
55617;SDS011;41492;49.804;9.952;2022-10-22T11:32:30;702.97;;;447.48;;
55617;SDS011;41492;49.804;9.952;2022-10-22T11:34:58;701.70;;;441.63;;
55617;SDS011;41492;49.804;9.952;2022-10-22T11:37:27;700.47;;;448.77;;
55617;SDS011;41492;49.804;9.952;2022-10-22T11:40:00;693.90;;;430.13;;
55617;SDS011;41492;49.804;9.952;2022-10-22T11:42:32;694.50;;;430.85;;
55617;SDS011;41492;49.804;9.952;2022-10-22T11:45:01;699.88;;;441.85;;
55617;SDS011;41492;49.804;9.952;2022-10-22T11:47:31;695.65;;;416.40;;
55617;SDS011;41492;49.804;9.952;2022-10-22T11:50:09;706.47;;;459.90;;
55617;SDS011;41492;49.804;9.952;2022-10-22T11:52:52;700.17;;;438.23;;
55617;SDS011;41492;49.804;9.952;2022-10-22T11:55:26;695.53;;;419.85;;
55617;SDS011;41492;49.804;9.952;2022-10-22T11:57:59;698.58;;;443.35;;
55617;SDS011;41492;49.804;9.952;2022-10-22T12:00:34;707.50;;;455.88;;
55617;SDS011;41492;49.804;9.952;2022-10-22T12:03:14;704.05;;;430.45;;
55617;SDS011;41492;49.804;9.952;2022-10-22T12:05:42;691.63;;;408.85;;
55617;SDS011;41492;49.804;9.952;2022-10-22T12:10:59;699.80;;;432.10;;
55617;SDS011;41492;49.804;9.952;2022-10-22T12:13:33;703.17;;;451.48;;
55617;SDS011;41492;49.804;9.952;2022-10-22T12:16:27;701.05;;;441.73;;
55617;SDS011;41492;49.804;9.952;2022-10-22T12:18:56;702.58;;;451.00;;
55617;SDS011;41492;49.804;9.952;2022-10-22T12:21:27;705.30;;;460.48;;
55617;SDS011;41492;49.804;9.952;2022-10-22T12:23:53;701.78;;;441.83;;
55617;SDS011;41492;49.804;9.952;2022-10-22T12:26:24;692.25;;;422.42;;
55617;SDS011;41492;49.804;9.952;2022-10-22T12:28:56;700.15;;;438.55;;
55617;SDS011;41492;49.804;9.952;2022-10-22T12:31:24;691.42;;;412.95;;
55617;SDS011;41492;49.804;9.952;2022-10-22T12:33:56;700.10;;;441.85;;
55617;SDS011;41492;49.804;9.952;2022-10-22T12:36:24;700.13;;;444.77;;
55617;SDS011;41492;49.804;9.952;2022-10-22T12:38:51;704.30;;;460.50;;
55617;SDS011;41492;49.804;9.952;2022-10-22T12:41:18;693.10;;;419.25;;
55617;SDS011;41492;49.804;9.952;2022-10-22T12:43:45;701.00;;;452.50;;
55617;SDS011;41492;49.804;9.952;2022-10-22T12:46:14;704.35;;;452.73;;
55617;SDS011;41492;49.804;9.952;2022-10-22T12:48:42;707.50;;;470.50;;
55617;SDS011;41492;49.804;9.952;2022-10-22T12:51:11;698.03;;;442.50;;
55617;SDS011;41492;49.804;9.952;2022-10-22T12:53:42;703.95;;;450.85;;
55617;SDS011;41492;49.804;9.952;2022-10-22T12:56:11;707.03;;;450.25;;
55617;SDS011;41492;49.804;9.952;2022-10-22T12:58:39;706.35;;;460.00;;
55617;SDS011;41492;49.804;9.952;2022-10-22T13:01:09;698.10;;;441.98;;
55617;SDS011;41492;49.804;9.952;2022-10-22T13:03:40;704.72;;;463.73;;
55617;SDS011;41492;49.804;9.952;2022-10-22T13:06:13;706.35;;;459.75;;
55617;SDS011;41492;49.804;9.952;2022-10-22T13:08:54;705.25;;;463.02;;
55617;SDS011;41492;49.804;9.952;2022-10-22T13:11:22;704.97;;;458.95;;
55617;SDS011;41492;49.804;9.952;2022-10-22T13:13:49;705.40;;;473.80;;
55617;SDS011;41492;49.804;9.952;2022-10-22T13:16:16;702.45;;;434.92;;
55617;SDS011;41492;49.804;9.952;2022-10-22T13:18:46;709.50;;;479.10;;
55617;SDS011;41492;49.804;9.952;2022-10-22T13:21:20;699.78;;;443.27;;
55617;SDS011;41492;49.804;9.952;2022-10-22T13:23:59;702.72;;;452.40;;
55617;SDS011;41492;49.804;9.952;2022-10-22T13:26:31;703.13;;;457.02;;
55617;SDS011;41492;49.804;9.952;2022-10-22T13:28:59;707.38;;;467.00;;
55617;SDS011;41492;49.804;9.952;2022-10-22T13:31:27;709.88;;;463.95;;
55617;SDS011;41492;49.804;9.952;2022-10-22T13:33:58;701.50;;;437.73;;
55617;SDS011;41492;49.804;9.952;2022-10-22T13:36:26;703.47;;;454.98;;
55617;SDS011;41492;49.804;9.952;2022-10-22T13:38:53;705.08;;;467.13;;
55617;SDS011;41492;49.804;9.952;2022-10-22T13:41:20;706.65;;;469.48;;
55617;SDS011;41492;49.804;9.952;2022-10-22T13:43:47;712.63;;;481.40;;
55617;SDS011;41492;49.804;9.952;2022-10-22T13:46:14;702.63;;;456.85;;
55617;SDS011;41492;49.804;9.952;2022-10-22T13:48:41;699.47;;;440.92;;
55617;SDS011;41492;49.804;9.952;2022-10-22T13:51:12;705.47;;;471.30;;
55617;SDS011;41492;49.804;9.952;2022-10-22T13:53:40;702.33;;;462.83;;
55617;SDS011;41492;49.804;9.952;2022-10-22T13:56:09;705.00;;;457.55;;
55617;SDS011;41492;49.804;9.952;2022-10-22T13:58:39;709.80;;;477.55;;
55617;SDS011;41492;49.804;9.952;2022-10-22T14:01:08;711.03;;;467.05;;
55617;SDS011;41492;49.804;9.952;2022-10-22T14:03:40;706.88;;;474.77;;
55617;SDS011;41492;49.804;9.952;2022-10-22T14:06:09;700.70;;;455.13;;
55617;SDS011;41492;49.804;9.952;2022-10-22T14:08:39;707.13;;;467.15;;
55617;SDS011;41492;49.804;9.952;2022-10-22T14:11:07;709.30;;;484.02;;
55617;SDS011;41492;49.804;9.952;2022-10-22T14:13:35;703.47;;;453.80;;
55617;SDS011;41492;49.804;9.952;2022-10-22T14:16:01;707.60;;;482.33;;